Time;durP1;ratioP1;P1;durP2;ratioP2;P2;SDS_P1;SDS_P2;PMS_P1;PMS_P2;Temp;Humidity;BMP_temperature;BMP_pressure;BME280_temperature;BME280_humidity;BME280_pressure;Samples;Min_cycle;Max_cycle;Signal;HPM_P1;HPM_P2
2023/01/13 00:03:10;;;;;;;7.10;2.90;;;;;;;4.19;98.58;98868.42;270737;1273;23670;-88
2023/01/13 00:09:27;;;;;;;5.30;2.40;;;;;;;4.24;98.76;98863.55;270419;1273;22553;-89
2023/01/13 00:15:57;;;;;;;4.20;2.30;;;;;;;4.21;98.61;98856.64;269502;1273;22243;-88
2023/01/13 00:22:31;;;;;;;2.90;2.10;;;;;;;4.13;98.75;98854.66;272701;1263;22351;-89
2023/01/13 00:28:33;;;;;;;3.70;1.80;;;;;;;4.10;99.12;98852.79;270523;1273;22781;-89
2023/01/13 00:34:36;;;;;;;3.80;2.00;;;;;;;4.12;99.39;98856.89;271300;1273;22204;-89
2023/01/13 00:41:07;;;;;;;4.90;1.60;;;;;;;4.15;99.56;98850.95;272554;1273;22235;-89
2023/01/13 00:47:17;;;;;;;2.90;1.80;;;;;;;4.25;99.71;98845.80;272095;1273;23011;-90
2023/01/13 00:53:23;;;;;;;3.00;1.70;;;;;;;4.45;99.72;98846.55;272278;1273;26524;-89
2023/01/13 00:59:49;;;;;;;2.70;1.60;;;;;;;4.53;99.59;98848.19;271300;1272;22560;-90
2023/01/13 01:05:51;;;;;;;3.10;1.80;;;;;;;4.59;99.71;98846.08;272615;1272;23274;-90
2023/01/13 01:12:13;;;;;;;2.00;1.40;;;;;;;4.57;99.49;98837.11;269826;1273;22561;-90
2023/01/13 01:18:18;;;;;;;6.30;2.10;;;;;;;4.50;99.54;98832.31;272375;1273;22245;-90
2023/01/13 01:24:22;;;;;;;3.20;1.60;;;;;;;4.41;99.49;98830.01;271630;1273;23663;-89
2023/01/13 01:30:24;;;;;;;5.00;1.80;;;;;;;4.32;99.62;98824.29;269911;1273;22582;-89
2023/01/13 01:36:27;;;;;;;5.50;1.80;;;;;;;4.27;99.90;98821.33;269666;1274;22212;-90
2023/01/13 01:44:13;;;;;;;5.40;1.30;;;;;;;4.27;100.00;98815.36;272004;1278;22801;-90
2023/01/13 01:50:25;;;;;;;4.10;1.90;;;;;;;4.33;100.00;98814.55;269374;1279;22571;-90
2023/01/13 02:04:49;;;;;;;3.70;1.60;;;;;;;4.57;100.00;98796.34;268558;1279;23301;-89
2023/01/13 02:19:48;;;;;;;3.50;1.20;;;;;;;4.76;100.00;98783.46;269055;1277;22594;-90
2023/01/13 02:34:29;;;;;;;4.20;1.50;;;;;;;4.83;100.00;98768.50;270363;1281;22223;-91
2023/01/13 02:48:40;;;;;;;4.60;1.50;;;;;;;4.85;100.00;98767.00;267989;1276;23445;-89
2023/01/13 02:55:10;;;;;;;3.20;1.50;;;;;;;4.89;100.00;98761.84;268163;1276;22561;-88
2023/01/13 03:01:13;;;;;;;2.60;1.20;;;;;;;5.01;100.00;98753.52;268971;1277;22593;-90
2023/01/13 03:08:08;;;;;;;5.00;1.60;;;;;;;5.03;100.00;98747.39;269075;1276;25508;-88
2023/01/13 03:14:54;;;;;;;4.40;1.90;;;;;;;4.99;100.00;98743.86;270509;1276;25317;-89
2023/01/13 03:21:45;;;;;;;;;;;;;;;;;;;;;
2023/01/13 03:29:11;;;;;;;2.90;1.30;;;;;;;5.32;100.00;98727.42;270366;1277;22548;-90
2023/01/13 03:35:45;;;;;;;1.30;1.00;;;;;;;5.65;100.00;98720.54;269193;1265;23383;-89
2023/01/13 03:42:30;;;;;;;2.50;1.40;;;;;;;5.87;99.93;98718.49;270578;1274;23028;-88
2023/01/13 03:48:52;;;;;;;2.20;1.30;;;;;;;6.04;99.45;98711.71;272179;1273;22428;-89
2023/01/13 03:54:59;;;;;;;5.00;1.60;;;;;;;6.11;99.00;98702.79;272707;1273;22283;-89
2023/01/13 04:01:51;;;;;;;3.40;1.70;;;;;;;6.14;98.95;98707.07;272233;1274;22204;-88
2023/01/13 04:08:19;;;;;;;2.20;1.30;;;;;;;6.27;98.48;98711.55;270734;1274;23933;-89
2023/01/13 04:14:22;;;;;;;4.70;1.70;;;;;;;6.31;98.37;98710.33;272522;1274;22208;-89
2023/01/13 04:20:49;;;;;;;5.10;1.70;;;;;;;6.31;98.33;98709.08;271882;1273;22435;-88
2023/01/13 04:27:00;;;;;;;2.80;1.50;;;;;;;6.30;98.19;98713.89;269836;1274;22215;-89
2023/01/13 04:33:22;;;;;;;5.20;1.80;;;;;;;6.31;98.08;98712.66;271611;1273;24102;-88
2023/01/13 04:39:24;;;;;;;4.30;1.50;;;;;;;6.25;98.12;98706.23;272580;1274;22222;-89
2023/01/13 04:45:50;;;;;;;4.90;1.60;;;;;;;6.23;98.24;98706.42;269914;1274;25365;-89
2023/01/13 04:51:52;;;;;;;3.70;1.70;;;;;;;6.27;98.06;98708.05;271063;1274;23724;-90
2023/01/13 04:58:44;;;;;;;4.40;2.10;;;;;;;6.31;97.97;98714.13;268227;1273;23923;-88
2023/01/13 05:05:10;;;;;;;3.40;2.00;;;;;;;6.37;97.79;98715.45;268940;1274;22787;-89
2023/01/13 05:18:23;;;;;;;;;;;;;;;;;;;;;
2023/01/13 05:25:30;;;;;;;4.00;1.90;;;;;;;6.59;97.08;98723.31;268903;1273;22455;-88
2023/01/13 05:31:32;;;;;;;4.40;1.70;;;;;;;6.64;96.79;98725.37;271180;1274;23888;-88
2023/01/13 05:37:33;;;;;;;3.20;1.60;;;;;;;6.69;96.74;98727.20;269963;1270;23531;-88
2023/01/13 05:43:43;;;;;;;3.30;1.80;;;;;;;6.67;96.62;98725.14;271706;1273;23014;-90
2023/01/13 05:49:51;;;;;;;4.20;1.60;;;;;;;6.65;96.59;98726.40;269925;1273;22463;-88
2023/01/13 05:56:16;;;;;;;3.30;1.50;;;;;;;6.59;96.62;98722.86;269696;1273;23163;-88
2023/01/13 06:03:13;;;;;;;2.80;1.70;;;;;;;6.62;96.52;98724.34;271153;1274;22213;-89
2023/01/13 06:10:07;;;;;;;5.40;2.30;;;;;;;6.61;96.42;98726.31;270775;1273;25305;-89
2023/01/13 06:16:15;;;;;;;3.80;2.00;;;;;;;6.60;96.14;98731.42;270082;1272;22551;-90
2023/01/13 06:23:09;;;;;;;3.40;1.80;;;;;;;6.53;96.19;98738.02;268779;1273;24222;-89
2023/01/13 06:29:15;;;;;;;4.50;1.80;;;;;;;6.46;96.42;98737.71;268424;1274;22557;-88
2023/01/13 06:35:37;;;;;;;3.70;1.70;;;;;;;6.44;96.42;98744.02;269369;1261;22547;-90
2023/01/13 06:48:59;;;;;;;3.60;1.40;;;;;;;6.51;96.42;98737.11;269538;1273;22542;-89
2023/01/13 07:02:09;;;;;;;6.30;2.00;;;;;;;6.67;96.18;98735.94;270051;1273;25406;-89
2023/01/13 07:08:12;;;;;;;6.70;2.10;;;;;;;6.76;95.56;98742.04;270399;1274;22470;-89
2023/01/13 07:21:21;;;;;;;5.70;2.60;;;;;;;6.99;94.59;98748.77;271881;1274;23863;-89
2023/01/13 07:27:34;;;;;;;11.60;5.60;;;;;;;7.05;94.59;98749.52;269869;1274;25512;-89
2023/01/13 07:34:05;;;;;;;24.40;10.30;;;;;;;7.09;94.54;98749.43;270642;1274;22264;-89
2023/01/13 07:40:32;;;;;;;11.00;3.80;;;;;;;7.12;94.44;98751.05;272217;1272;22200;-90
2023/01/13 07:46:59;;;;;;;5.70;3.00;;;;;;;7.13;94.62;98747.66;270582;1273;23790;-89
2023/01/13 07:53:35;;;;;;;4.00;2.10;;;;;;;7.18;94.47;98749.80;269347;1273;22579;-89
2023/01/13 08:00:03;;;;;;;4.80;2.50;;;;;;;7.24;94.45;98754.97;269210;1274;22235;-90
2023/01/13 08:06:35;;;;;;;9.50;3.40;;;;;;;7.32;94.42;98751.08;269028;1274;22355;-90
2023/01/13 08:19:04;;;;;;;6.50;2.50;;;;;;;7.53;94.06;98738.66;269562;1273;22567;-89
2023/01/13 08:25:07;;;;;;;5.30;2.20;;;;;;;7.66;93.54;98730.41;269116;1274;24237;-88
2023/01/13 08:31:28;;;;;;;3.00;1.80;;;;;;;7.78;93.41;98733.83;268977;1273;22683;-88
2023/01/13 08:37:32;;;;;;;6.40;2.40;;;;;;;7.96;92.68;98733.91;270896;1274;23852;-91
2023/01/13 08:43:33;;;;;;;3.10;2.10;;;;;;;8.13;92.09;98726.08;271133;1274;22218;-87
2023/01/13 08:49:45;;;;;;;6.80;3.50;;;;;;;8.26;91.62;98729.27;272625;1273;23726;-87
2023/01/13 08:56:10;;;;;;;4.80;3.00;;;;;;;8.44;91.21;98738.68;272446;1273;23732;-88
2023/01/13 09:02:54;;;;;;;5.00;2.20;;;;;;;8.61;90.70;98741.60;270438;1273;23026;-90
2023/01/13 09:09:01;;;;;;;6.00;2.30;;;;;;;8.87;90.23;98738.45;269987;1266;22636;-89
2023/01/13 09:15:05;;;;;;;4.30;1.90;;;;;;;9.18;89.11;98738.23;269643;1273;22575;-89
2023/01/13 09:21:13;;;;;;;5.60;2.30;;;;;;;9.34;88.23;98730.47;269026;1265;22670;-89
2023/01/13 09:27:40;;;;;;;5.70;2.10;;;;;;;9.41;87.52;98723.84;269752;1261;22416;-88
2023/01/13 17:15:39;;;;;;;11.70;5.40;;;;;;;7.99;81.93;98702.82;264271;1299;545011;-87
2023/01/13 17:21:45;;;;;;;12.10;5.80;;;;;;;7.95;82.06;98708.66;270712;1282;23642;-89
2023/01/13 17:27:48;;;;;;;12.90;6.50;;;;;;;7.97;82.33;98708.69;268877;1279;556684;-89
2023/01/13 17:33:50;;;;;;;16.80;7.40;;;;;;;7.98;82.70;98700.38;262229;1279;10002029;-91
2023/01/13 17:39:52;;;;;;;11.80;6.00;;;;;;;7.98;83.20;98702.73;270517;1279;22295;-90
2023/01/13 17:45:55;;;;;;;12.70;6.10;;;;;;;7.97;83.40;98703.31;271712;1279;22246;-90
2023/01/13 17:51:57;;;;;;;12.40;6.40;;;;;;;8.02;83.63;98708.30;269265;1279;22352;-89
2023/01/13 17:57:59;;;;;;;11.00;5.70;;;;;;;8.04;83.76;98710.59;271654;1279;23713;-90
2023/01/13 18:04:12;;;;;;;11.90;5.50;;;;;;;8.06;84.04;98709.84;272736;1272;22307;-90
2023/01/13 18:10:37;;;;;;;11.90;5.70;;;;;;;8.03;84.07;98707.30;272396;1272;23779;-90
2023/01/13 18:16:39;;;;;;;13.60;6.20;;;;;;;8.05;84.13;98709.36;272859;1272;22527;-90
2023/01/13 18:29:03;;;;;;;10.60;5.30;;;;;;;8.04;84.19;98717.05;272922;1270;22430;-90
2023/01/13 18:35:08;;;;;;;11.50;5.70;;;;;;;7.99;84.44;98719.78;273112;1270;22507;-91
2023/01/13 18:47:32;;;;;;;9.70;5.00;;;;;;;8.00;84.93;98721.98;270482;1272;22500;-90
2023/01/13 18:53:35;;;;;;;10.30;5.00;;;;;;;8.10;84.89;98724.16;273059;1270;22586;-91
2023/01/13 18:59:37;;;;;;;10.30;5.00;;;;;;;8.14;84.88;98724.16;273063;1270;22369;-90
2023/01/13 19:05:39;;;;;;;13.00;6.10;;;;;;;8.14;84.84;98728.75;273125;1270;22223;-90
2023/01/13 19:11:45;;;;;;;11.90;5.60;;;;;;;8.15;84.78;98733.05;273087;1270;22394;-91
2023/01/13 19:17:52;;;;;;;13.40;6.20;;;;;;;8.15;84.84;98742.08;272944;1272;22564;-90
2023/01/13 19:23:56;;;;;;;8.20;4.90;;;;;;;8.13;84.99;98750.00;273269;1272;22223;-90
2023/01/13 19:30:01;;;;;;;11.10;4.90;;;;;;;8.08;85.38;98763.93;273531;1269;23738;-90
2023/01/13 19:36:08;;;;;;;10.70;5.90;;;;;;;7.99;86.01;98781.63;273466;1271;23587;-90
2023/01/13 19:48:37;;;;;;;21.90;9.40;;;;;;;7.71;88.45;98813.88;272453;1269;22405;-88
2023/01/13 19:54:39;;;;;;;26.90;10.50;;;;;;;7.49;89.72;98829.38;273324;1259;22585;-89
2023/01/13 20:00:46;;;;;;;10.90;5.40;;;;;;;7.29;90.47;98837.83;270972;1261;22516;-87
2023/01/13 20:06:51;;;;;;;9.70;4.90;;;;;;;7.13;91.29;98843.80;273371;1269;22338;-87
2023/01/13 20:12:53;;;;;;;7.00;3.60;;;;;;;7.00;91.97;98850.89;272969;1269;22408;-87
2023/01/13 20:18:55;;;;;;;10.50;4.40;;;;;;;6.86;92.24;98853.13;273594;1257;22402;-87
2023/01/13 20:24:57;;;;;;;11.10;4.40;;;;;;;6.75;93.27;98857.91;273670;1269;23538;-87
2023/01/13 20:30:59;;;;;;;15.50;8.00;;;;;;;6.68;94.00;98866.89;273678;1260;22423;-87
2023/01/13 20:37:09;;;;;;;10.30;4.70;;;;;;;6.59;94.96;98873.73;273330;1270;22476;-87
2023/01/13 20:43:10;;;;;;;9.50;4.90;;;;;;;6.53;95.49;98878.96;273561;1269;22374;-87
2023/01/13 20:49:14;;;;;;;8.00;4.80;;;;;;;6.48;95.93;98886.52;273772;1266;22355;-88
2023/01/13 20:55:19;;;;;;;10.50;5.30;;;;;;;6.41;96.54;98902.89;273223;1268;23968;-86
2023/01/13 21:01:25;;;;;;;14.10;6.00;;;;;;;6.29;97.00;98921.09;270797;1270;22573;-87
2023/01/13 21:07:37;;;;;;;10.50;6.30;;;;;;;6.17;96.98;98919.14;270038;1270;22909;-87
2023/01/13 21:20:10;;;;;;;18.50;8.20;;;;;;;6.06;99.01;98930.71;270283;1269;23185;-88
2023/01/13 21:26:20;;;;;;;18.40;9.00;;;;;;;6.06;99.17;98939.79;272167;1268;23924;-88
2023/01/13 21:32:23;;;;;;;12.10;7.80;;;;;;;6.01;99.55;98945.25;269738;1270;22572;-89
2023/01/13 21:38:25;;;;;;;13.80;7.50;;;;;;;5.99;99.76;98953.34;270134;1269;22540;-87
2023/01/13 21:50:47;;;;;;;11.70;4.60;;;;;;;5.88;99.62;98961.02;270368;1254;23424;-86
2023/01/13 21:56:49;;;;;;;7.40;4.20;;;;;;;5.82;99.58;98957.55;271846;1257;23736;-87
2023/01/13 22:02:51;;;;;;;7.90;3.50;;;;;;;5.72;99.90;98949.89;273346;1257;23722;-87
2023/01/13 22:08:54;;;;;;;6.50;3.30;;;;;;;5.62;99.92;98944.38;270224;1267;22536;-88
2023/01/13 22:14:56;;;;;;;5.60;2.80;;;;;;;5.54;99.67;98944.92;273567;1269;23101;-88
2023/01/13 22:21:01;;;;;;;5.80;2.90;;;;;;;5.47;99.90;98948.66;273808;1268;22414;-89
2023/01/13 22:27:03;;;;;;;6.40;3.60;;;;;;;5.41;100.00;98953.07;273790;1269;22215;-89
2023/01/13 22:33:05;;;;;;;5.90;3.30;;;;;;;5.38;100.00;98952.43;273746;1269;22792;-89
2023/01/13 22:39:07;;;;;;;6.30;3.40;;;;;;;5.38;100.00;98957.86;273788;1256;22450;-90
2023/01/13 22:45:11;;;;;;;5.70;3.20;;;;;;;5.39;100.00;98961.55;273763;1269;23024;-89
2023/01/13 22:51:14;;;;;;;6.70;3.70;;;;;;;5.42;100.00;98968.54;273389;1268;22212;-89
2023/01/13 22:57:16;;;;;;;6.30;3.20;;;;;;;5.42;100.00;98961.30;272570;1268;22632;-88
2023/01/13 23:03:18;;;;;;;7.10;3.60;;;;;;;5.35;100.00;98959.47;271192;1269;22502;-89
2023/01/13 23:09:20;;;;;;;9.30;3.50;;;;;;;5.27;100.00;98966.27;272606;1267;24369;-89
2023/01/13 23:15:21;;;;;;;4.90;3.20;;;;;;;5.21;100.00;98965.84;272145;1269;22334;-89
2023/01/13 23:21:27;;;;;;;6.20;3.10;;;;;;;5.15;100.00;98968.52;271123;1269;22540;-88
2023/01/13 23:27:29;;;;;;;5.70;3.20;;;;;;;5.03;100.00;98971.46;273181;1268;22231;-89
2023/01/13 23:33:30;;;;;;;6.50;3.80;;;;;;;4.93;100.00;98972.94;273744;1269;22375;-90
2023/01/13 23:39:32;;;;;;;5.20;2.80;;;;;;;4.84;100.00;98968.13;273688;1268;23063;-89
2023/01/13 23:45:34;;;;;;;6.70;3.30;;;;;;;4.76;100.00;98968.58;271637;1269;22560;-89
2023/01/13 23:51:38;;;;;;;5.40;3.00;;;;;;;4.66;100.00;98980.27;270752;1269;22431;-90
2023/01/13 23:57:41;;;;;;;5.80;3.40;;;;;;;4.58;100.00;98989.04;273759;1269;22421;-89
